createdAt,value
2023-04-14T00:05:08.464Z,99560.04
2023-04-14T00:10:12.135Z,99556.80
2023-04-14T00:15:18.891Z,99553.39
2023-04-14T00:20:22.286Z,99558.59
2023-04-14T00:25:26.393Z,99557.68
2023-04-14T00:30:30.147Z,99558.55
2023-04-14T00:35:33.649Z,99553.98
2023-04-14T00:40:36.990Z,99553.63
2023-04-14T00:45:45.753Z,99553.96
2023-04-14T00:50:49.289Z,99551.91
2023-04-14T00:55:52.955Z,99548.86
2023-04-14T01:00:58.954Z,99547.23
2023-04-14T01:06:02.386Z,99547.67
2023-04-14T01:11:57.245Z,99549.04
2023-04-14T01:17:14.033Z,99547.92
2023-04-14T01:22:41.690Z,99557.46
2023-04-14T01:28:20.186Z,99555.11
2023-04-14T01:33:30.523Z,99554.24
2023-04-14T01:38:37.790Z,99555.59
2023-04-14T01:44:02.184Z,99555.84
2023-04-14T01:49:06.835Z,99561.95
2023-04-14T01:54:16.435Z,99562.02
2023-04-14T01:59:41.696Z,99549.11
2023-04-14T02:04:49.024Z,99548.81
2023-04-14T02:10:06.628Z,99549.05
2023-04-14T02:15:17.980Z,99553.30
2023-04-14T02:20:23.668Z,99549.56
2023-04-14T02:25:32.684Z,99550.91
2023-04-14T02:30:42.766Z,99556.48
2023-04-14T02:35:56.304Z,99560.67
2023-04-14T02:41:23.854Z,99551.42
2023-04-14T02:46:33.434Z,99553.13
2023-04-14T02:51:38.909Z,99552.95
2023-04-14T02:56:54.138Z,99554.39
2023-04-14T03:02:03.114Z,99558.33
2023-04-14T03:07:13.751Z,99557.25
2023-04-14T03:12:19.674Z,99559.09
2023-04-14T03:17:24.915Z,99556.48
2023-04-14T03:22:31.159Z,99559.55
2023-04-14T03:27:35.995Z,99566.61
2023-04-14T03:32:42.465Z,99566.76
2023-04-14T03:37:49.417Z,99563.13
2023-04-14T03:42:53.205Z,99565.77
2023-04-14T03:48:02.892Z,99575.06
2023-04-14T03:53:12.591Z,99578.81
2023-04-14T03:58:18.383Z,99587.05
2023-04-14T04:03:27.393Z,99587.17
2023-04-14T04:08:32.218Z,99587.77
2023-04-14T04:13:37.064Z,99586.85
2023-04-14T04:18:47.086Z,99588.63
2023-04-14T04:23:57.373Z,99587.98
2023-04-14T04:29:01.397Z,99591.10
2023-04-14T04:34:18.295Z,99593.14
2023-04-14T04:39:34.282Z,99604.19
2023-04-14T04:44:40.977Z,99605.90
2023-04-14T04:49:44.315Z,99606.80
2023-04-14T04:54:52.438Z,99606.39
2023-04-14T05:00:09.727Z,99610.55
2023-04-14T05:05:20.636Z,99607.77
2023-04-14T05:10:24.110Z,99612.41
2023-04-14T05:15:27.614Z,99613.92
2023-04-14T05:20:31.427Z,99609.11
2023-04-14T05:25:38.522Z,99611.62
2023-04-14T05:31:04.847Z,99613.46
2023-04-14T05:36:08.820Z,99613.92
2023-04-14T05:41:12.446Z,99617.07
2023-04-14T05:46:19.061Z,99617.46
2023-04-14T05:51:22.415Z,99619.94
2023-04-14T05:56:46.309Z,99620.10
2023-04-14T06:01:50.539Z,99623.05
2023-04-14T06:06:54.558Z,99622.21
2023-04-14T06:12:38.254Z,99626.73
2023-04-14T06:17:41.946Z,99626.88
2023-04-14T06:22:46.300Z,99629.86
2023-04-14T06:27:49.642Z,99626.15
2023-04-14T06:32:54.561Z,99625.48
2023-04-14T06:37:58.123Z,99627.36
2023-04-14T06:43:01.423Z,99627.22
2023-04-14T06:48:05.474Z,99624.55
2023-04-14T06:53:11.860Z,99631.48
2023-04-14T06:58:15.577Z,99634.98
2023-04-14T07:03:18.903Z,99623.89
2023-04-14T07:08:22.505Z,99620.46
2023-04-14T07:13:25.849Z,99624.83
2023-04-14T07:18:30.597Z,99626.49
2023-04-14T07:23:34.075Z,99622.36
2023-04-14T07:28:37.511Z,99622.58
2023-04-14T07:33:40.967Z,99625.27
2023-04-14T07:38:44.227Z,99628.96
2023-04-14T07:43:47.702Z,99631.15
2023-04-14T07:48:51.439Z,99631.23
2023-04-14T07:53:56.232Z,99633.70
2023-04-14T07:58:59.698Z,99627.06
2023-04-14T08:04:03.373Z,99631.77
2023-04-14T08:09:07.212Z,99630.23
2023-04-14T08:14:10.600Z,99623.75
2023-04-14T08:19:13.896Z,99625.34
2023-04-14T08:24:17.185Z,99620.27
2023-04-14T08:29:21.949Z,99614.85
2023-04-14T08:34:28.589Z,99615.63
2023-04-14T08:39:32.301Z,99614.98
2023-04-14T08:44:35.885Z,99613.98
2023-04-14T08:49:45.666Z,99606.77
2023-04-14T08:54:51.297Z,99597.27
2023-04-14T08:59:59.836Z,99599.96
2023-04-14T09:05:03.954Z,99596.06
2023-04-14T09:10:08.365Z,99597.59
2023-04-14T09:15:12.581Z,99589.29
2023-04-14T09:20:36.047Z,99588.93
2023-04-14T09:25:41.802Z,99587.65
2023-04-14T09:30:47.997Z,99589.71
2023-04-14T09:35:52.675Z,99590.52
2023-04-14T09:40:57.119Z,99596.60
2023-04-14T09:46:09.578Z,99593.50
2023-04-14T09:51:14.128Z,99587.78
2023-04-14T09:56:17.512Z,99586.65
2023-04-14T10:01:21.570Z,99584.02
2023-04-14T10:06:25.223Z,99573.31
2023-04-14T10:11:30.416Z,99572.14
2023-04-14T10:16:34.926Z,99563.98
2023-04-14T10:21:38.621Z,99571.38
2023-04-14T10:26:42.937Z,99568.88
2023-04-14T10:31:51.443Z,99569.34
2023-04-14T10:36:54.910Z,99569.27
2023-04-14T10:41:58.319Z,99572.14
2023-04-14T10:47:07.880Z,99572.23
2023-04-14T10:52:14.388Z,99569.02
2023-04-14T10:57:19.240Z,99562.86
2023-04-14T11:02:33.257Z,99558.97
2023-04-14T11:07:54.589Z,99556.52
2023-04-14T11:13:04.110Z,99549.45
2023-04-14T11:18:20.415Z,99544.61
2023-04-14T11:23:28.282Z,99543.44
2023-04-14T11:28:33.747Z,99544.29
2023-04-14T11:33:38.995Z,99544.29
2023-04-14T11:38:43.148Z,99536.35
2023-04-14T11:43:47.210Z,99543.14
2023-04-14T11:48:58.212Z,99533.74
2023-04-14T11:54:02.556Z,99530.06
2023-04-14T11:59:18.339Z,99524.04
2023-04-14T12:04:24.794Z,99521.52
2023-04-14T12:09:32.251Z,99520.94
2023-04-14T12:14:37.373Z,99514.17
2023-04-14T12:20:30.480Z,99512.23
2023-04-14T12:25:36.484Z,99508.92
2023-04-14T12:30:54.403Z,99506.66
2023-04-14T12:36:06.235Z,99504.83
2023-04-14T12:41:11.077Z,99497.05
2023-04-14T12:46:28.196Z,99489.96
2023-04-14T12:51:39.094Z,99489.63
2023-04-14T12:56:42.824Z,99490.34
2023-04-14T13:01:46.231Z,99483.91
2023-04-14T13:06:49.789Z,99485.36
2023-04-14T13:11:53.044Z,99476.66
2023-04-14T13:16:56.380Z,99474.75
2023-04-14T13:21:59.709Z,99477.36
2023-04-14T13:27:03.299Z,99477.11
2023-04-14T13:32:11.362Z,99479.29
2023-04-14T13:37:14.773Z,99475.25
2023-04-14T13:42:18.695Z,99472.76
2023-04-14T13:47:22.333Z,99476.92
2023-04-14T13:52:25.919Z,99473.94
2023-04-14T13:57:29.322Z,99475.81
2023-04-14T14:02:33.571Z,99470.98
2023-04-14T14:07:38.296Z,99466.77
2023-04-14T14:12:41.722Z,99461.50
2023-04-14T14:17:45.313Z,99453.69
2023-04-14T14:22:48.630Z,99450.27
2023-04-14T14:28:02.147Z,99445.23
2023-04-14T14:33:05.737Z,99451.75
2023-04-14T14:38:09.085Z,99454.91
2023-04-14T14:43:12.260Z,99449.73
2023-04-14T14:48:16.770Z,99448.96
2023-04-14T14:53:19.974Z,99446.67
2023-04-14T14:58:24.553Z,99450.09
2023-04-14T15:03:28.008Z,99454.37
2023-04-14T15:08:31.407Z,99446.77
2023-04-14T15:13:34.568Z,99444.23
2023-04-14T15:18:37.949Z,99441.92
2023-04-14T15:23:43.691Z,99444.40
2023-04-14T15:28:48.180Z,99446.15
2023-04-14T15:33:51.532Z,99445.27
2023-04-14T15:38:55.537Z,99451.74
2023-04-14T15:43:58.933Z,99454.53
2023-04-14T15:49:02.229Z,99457.69
2023-04-14T15:54:05.826Z,99460.84
2023-04-14T15:59:09.078Z,99463.70
2023-04-14T16:04:12.541Z,99466.46
2023-04-14T16:09:16.187Z,99474.35
2023-04-14T16:14:19.536Z,99470.72
2023-04-14T16:19:23.370Z,99474.13
2023-04-14T16:24:26.790Z,99475.97
2023-04-14T16:29:30.276Z,99478.27
2023-04-14T16:34:34.901Z,99481.66
2023-04-14T16:39:38.223Z,99483.98
2023-04-14T16:44:41.960Z,99484.37
2023-04-14T16:49:45.822Z,99486.80
2023-04-14T16:54:49.070Z,99493.58
2023-04-14T16:59:52.327Z,99497.55
2023-04-14T17:04:57.654Z,99507.65
2023-04-14T17:10:01.025Z,99511.54
2023-04-14T17:15:05.390Z,99515.95
2023-04-14T17:20:10.512Z,99517.17
2023-04-14T17:25:19.861Z,99524.86
2023-04-14T17:30:27.343Z,99529.72
2023-04-14T17:35:35.549Z,99532.09
2023-04-14T17:40:39.257Z,99537.54
2023-04-14T17:45:46.020Z,99536.11
2023-04-14T17:50:49.807Z,99540.86
2023-04-14T17:55:57.138Z,99546.30
2023-04-14T18:01:00.785Z,99553.04
2023-04-14T18:06:04.272Z,99559.03
2023-04-14T18:11:10.554Z,99565.98
2023-04-14T18:16:14.159Z,99569.23
2023-04-14T18:21:38.360Z,99578.51
2023-04-14T18:26:41.937Z,99585.26
2023-04-14T18:31:56.747Z,99588.88
2023-04-14T18:37:00.412Z,99586.98
2023-04-14T18:42:04.729Z,99591.91
2023-04-14T18:47:08.843Z,99593.56
2023-04-14T18:52:12.506Z,99596.05
2023-04-14T18:57:16.487Z,99598.59
2023-04-14T19:02:37.636Z,99606.56
2023-04-14T19:07:44.493Z,99610.67
2023-04-14T19:12:57.334Z,99605.39
2023-04-14T19:18:07.035Z,99613.29
2023-04-14T19:23:10.554Z,99612.03
2023-04-14T19:28:16.900Z,99600.33
2023-04-14T19:33:20.935Z,99592.55
2023-04-14T19:38:25.022Z,99591.80
2023-04-14T19:43:28.553Z,99593.10
2023-04-14T19:48:39.082Z,99602.32
2023-04-14T19:53:44.135Z,99601.78
2023-04-14T19:58:47.610Z,99601.23
2023-04-14T20:04:04.890Z,99602.52
2023-04-14T20:09:14.556Z,99600.77
2023-04-14T20:14:18.071Z,99598.02
2023-04-14T20:19:21.380Z,99600.30
2023-04-14T20:24:24.805Z,99604.11
2023-04-14T20:29:28.145Z,99600.21
2023-04-14T20:34:35.554Z,99600.21
2023-04-14T20:39:39.140Z,99594.38
2023-04-14T20:44:42.521Z,99591.35
2023-04-14T20:49:45.934Z,99590.89
2023-04-14T20:54:49.419Z,99587.91
2023-04-14T20:59:52.836Z,99584.60
2023-04-14T21:04:56.671Z,99586.23
2023-04-14T21:09:59.928Z,99580.68
2023-04-14T21:15:47.023Z,99576.33
2023-04-14T21:20:34.131Z,99576.20
2023-04-14T21:25:37.749Z,99573.52
2023-04-14T21:30:40.998Z,99573.73
2023-04-14T21:35:44.768Z,99579.93
2023-04-14T21:41:13.364Z,99577.00
2023-04-14T21:46:37.577Z,99572.05
2023-04-14T21:51:40.824Z,99571.23
2023-04-14T21:56:45.241Z,99576.73
2023-04-14T22:01:51.393Z,99580.16
2023-04-14T22:06:55.155Z,99573.80
2023-04-14T22:11:58.803Z,99577.15
2023-04-14T22:17:03.185Z,99573.67
2023-04-14T22:22:07.637Z,99578.29
2023-04-14T22:27:23.024Z,99571.61
2023-04-14T22:32:26.602Z,99571.46
2023-04-14T22:37:43.353Z,99576.98
2023-04-14T22:42:47.186Z,99572.96
2023-04-14T22:47:51.155Z,99573.60
2023-04-14T22:52:54.750Z,99574.83
2023-04-14T22:57:58.391Z,99575.74
2023-04-14T23:03:02.023Z,99573.10
2023-04-14T23:08:05.918Z,99568.52
2023-04-14T23:13:09.495Z,99567.03
2023-04-14T23:18:13.140Z,99565.58
2023-04-14T23:23:16.735Z,99567.92
2023-04-14T23:28:19.975Z,99561.85
2023-04-14T23:33:23.471Z,99568.05
2023-04-14T23:38:27.118Z,99572.39
2023-04-14T23:43:30.599Z,99571.07
2023-04-14T23:48:33.947Z,99568.28
2023-04-14T23:53:37.291Z,99570.67
2023-04-14T23:58:40.802Z,99572.44
